Time;durP1;ratioP1;P1;durP2;ratioP2;P2;SDS_P1;SDS_P2;PMS_P1;PMS_P2;Temp;Humidity;BMP_temperature;BMP_pressure;BME280_temperature;BME280_humidity;BME280_pressure;Samples;Min_cycle;Max_cycle;Signal;HPM_P1;HPM_P2
2023/05/28 00:01:08;;;;;;;3.35;0.40;;;;;;;12.17;57.45;101643.84;4965505;28;20070;-75
2023/05/28 00:03:35;;;;;;;7.30;0.75;;;;;;;12.14;57.28;101643.88;4960488;28;20051;-74
2023/05/28 00:06:04;;;;;;;4.25;0.80;;;;;;;12.12;57.41;101643.91;4962568;28;20050;-75
2023/05/28 00:08:31;;;;;;;2.45;0.40;;;;;;;12.11;57.59;101646.53;4966498;28;20519;-75
2023/05/28 00:11:00;;;;;;;3.22;0.50;;;;;;;12.08;57.38;101644.81;4968112;28;20439;-74
2023/05/28 00:13:28;;;;;;;7.40;0.47;;;;;;;12.06;57.64;101640.47;4965311;28;20519;-74
2023/05/28 00:15:55;;;;;;;4.35;0.50;;;;;;;12.04;57.42;101644.84;4968215;28;20501;-74
2023/05/28 00:18:23;;;;;;;3.67;0.50;;;;;;;12.01;57.65;101648.41;4965346;28;20051;-73
2023/05/28 00:20:50;;;;;;;3.13;0.60;;;;;;;12.00;57.42;101653.63;4968632;28;20130;-74
2023/05/28 00:23:19;;;;;;;3.58;0.50;;;;;;;11.97;58.08;101638.81;4967421;28;20043;-75
2023/05/28 00:25:46;;;;;;;6.53;0.55;;;;;;;11.94;58.20;101644.09;4963785;28;20047;-74
2023/05/28 00:28:13;;;;;;;6.20;0.60;;;;;;;11.91;58.40;101638.88;4962920;28;20054;-74
2023/05/28 00:30:40;;;;;;;3.67;0.50;;;;;;;11.90;58.60;101634.56;4963817;28;20053;-74
2023/05/28 00:33:07;;;;;;;5.13;0.40;;;;;;;11.88;58.65;101637.16;4964822;28;20053;-74
2023/05/28 00:35:34;;;;;;;3.85;0.32;;;;;;;11.86;58.30;101631.06;4960534;28;20165;-73
2023/05/28 00:38:01;;;;;;;3.88;1.00;;;;;;;11.85;58.71;101636.31;4965765;28;20591;-74
2023/05/28 00:40:29;;;;;;;3.25;0.45;;;;;;;11.83;58.45;101624.97;4966710;28;20042;-76
2023/05/28 00:42:56;;;;;;;3.75;0.50;;;;;;;11.81;58.63;101638.09;4960633;28;20046;-74
2023/05/28 00:45:23;;;;;;;5.85;0.85;;;;;;;11.81;58.74;101630.25;4963980;28;20054;-75
2023/05/28 00:47:51;;;;;;;5.32;0.60;;;;;;;11.78;58.76;101630.28;4963671;28;20503;-74
2023/05/28 00:50:20;;;;;;;4.80;0.75;;;;;;;11.79;58.26;101634.63;4966442;28;20074;-76
2023/05/28 00:52:50;;;;;;;4.97;0.65;;;;;;;11.78;58.86;101637.22;4965182;28;20062;-74
2023/05/28 00:55:18;;;;;;;4.40;0.60;;;;;;;11.77;58.47;101638.13;4964444;28;20620;-74
2023/05/28 00:57:48;;;;;;;4.88;0.52;;;;;;;11.76;58.45;101634.66;4964408;28;20126;-74
2023/05/28 01:00:16;;;;;;;1.20;0.43;;;;;;;11.73;58.48;101637.28;4963302;28;20047;-75
2023/05/28 01:02:44;;;;;;;5.63;0.82;;;;;;;11.74;58.40;101632.91;4965606;28;20043;-75
2023/05/28 01:05:10;;;;;;;2.78;0.55;;;;;;;11.74;58.37;101636.41;4964401;28;20046;-74
2023/05/28 01:07:38;;;;;;;7.05;0.70;;;;;;;11.72;58.80;101635.53;4962967;28;20049;-74
2023/05/28 01:10:07;;;;;;;3.53;1.00;;;;;;;11.70;58.25;101629.47;4965155;28;20491;-74
2023/05/28 01:12:36;;;;;;;5.28;0.63;;;;;;;11.68;58.30;101626.84;4962220;28;20515;-75
2023/05/28 01:15:06;;;;;;;5.13;0.60;;;;;;;11.64;57.90;101624.28;4964024;28;20538;-74
2023/05/28 01:17:33;;;;;;;5.50;0.60;;;;;;;11.67;58.25;101632.97;4965131;28;20514;-74
2023/05/28 01:20:10;;;;;;;2.78;0.88;;;;;;;11.66;57.70;101630.38;4960758;28;20601;-74
2023/05/28 01:22:38;;;;;;;5.93;2.08;;;;;;;11.62;57.49;101620.81;4961277;28;20047;-74
2023/05/28 01:25:09;;;;;;;7.32;1.38;;;;;;;11.63;57.66;101625.16;4964019;28;20488;-75
2023/05/28 01:27:39;;;;;;;7.57;0.70;;;;;;;11.62;57.46;101619.06;4958903;28;20494;-75
2023/05/28 01:30:08;;;;;;;3.42;1.02;;;;;;;11.59;57.47;101618.25;4963307;28;20043;-74
2023/05/28 01:32:35;;;;;;;6.22;1.10;;;;;;;11.59;56.89;101618.25;4963338;28;20065;-74
2023/05/28 01:35:02;;;;;;;2.40;0.70;;;;;;;11.58;56.83;101621.72;4962725;28;20050;-74
2023/05/28 01:37:31;;;;;;;3.17;1.02;;;;;;;11.59;56.70;101626.09;4965334;28;20057;-75
2023/05/28 01:39:59;;;;;;;3.97;0.77;;;;;;;11.57;57.00;101620.84;4964734;28;20058;-74
2023/05/28 01:42:28;;;;;;;3.42;0.63;;;;;;;11.54;56.37;101614.78;4962879;28;20046;-74
2023/05/28 01:44:57;;;;;;;3.83;0.60;;;;;;;11.55;56.43;101624.38;4961546;28;20052;-75
2023/05/28 01:47:25;;;;;;;2.65;0.55;;;;;;;11.57;56.70;101625.22;4966510;28;20411;-75
2023/05/28 01:49:52;;;;;;;5.90;0.70;;;;;;;11.56;56.47;101623.50;4960901;28;20057;-75
2023/05/28 01:52:19;;;;;;;8.07;1.15;;;;;;;11.52;56.66;101604.31;4964112;28;20043;-74
2023/05/28 01:54:46;;;;;;;9.23;1.88;;;;;;;11.56;56.63;101607.81;4967200;28;20061;-75
2023/05/28 01:57:14;;;;;;;9.95;1.13;;;;;;;11.55;56.58;101598.19;4963861;28;20058;-74
2023/05/28 01:59:43;;;;;;;4.68;0.90;;;;;;;11.55;56.40;101592.97;4970856;28;20137;-74
2023/05/28 02:02:10;;;;;;;6.40;0.85;;;;;;;11.55;56.30;101595.56;4966481;28;20519;-74
2023/05/28 02:04:36;;;;;;;3.50;0.80;;;;;;;11.54;56.14;101594.72;4965473;28;20046;-75
2023/05/28 02:07:04;;;;;;;6.53;0.80;;;;;;;11.55;56.13;101596.44;4971071;28;20058;-74
2023/05/28 02:09:31;;;;;;;6.93;0.93;;;;;;;11.55;56.65;101592.97;4966138;28;20122;-74
2023/05/28 02:12:02;;;;;;;6.68;0.70;;;;;;;11.56;56.27;101592.09;4969176;28;20053;-74
2023/05/28 02:14:29;;;;;;;5.95;0.77;;;;;;;11.56;56.24;101581.63;4952875;28;20042;-79
2023/05/28 02:16:58;;;;;;;6.95;1.42;;;;;;;11.54;55.67;101572.94;4962744;28;20047;-74
2023/05/28 02:19:25;;;;;;;10.90;0.65;;;;;;;11.54;56.14;101575.53;4968982;28;20047;-75
2023/05/28 02:21:53;;;;;;;8.02;1.00;;;;;;;11.55;55.88;101572.03;4965260;28;20058;-74
2023/05/28 02:24:20;;;;;;;5.20;0.70;;;;;;;11.58;55.79;101577.22;4970154;28;20671;-76
2023/05/28 02:26:47;;;;;;;6.07;0.75;;;;;;;11.56;56.33;101573.78;4970403;28;20113;-75
2023/05/28 02:29:14;;;;;;;6.53;0.52;;;;;;;11.58;55.90;101572.84;4962689;28;20055;-74
2023/05/28 02:31:42;;;;;;;4.55;0.75;;;;;;;11.57;55.80;101575.50;4968797;28;20053;-75
2023/05/28 02:34:10;;;;;;;3.38;0.68;;;;;;;11.55;55.59;101575.50;4970469;28;20053;-74
2023/05/28 02:36:37;;;;;;;5.93;0.82;;;;;;;11.56;55.72;101579.03;4966249;28;20110;-75
2023/05/28 02:39:05;;;;;;;6.57;0.80;;;;;;;11.61;55.41;101585.03;4968492;28;20046;-75
2023/05/28 02:41:32;;;;;;;7.07;1.25;;;;;;;11.62;55.65;101576.34;4960156;28;20098;-75
2023/05/28 02:43:59;;;;;;;7.00;0.88;;;;;;;11.63;55.40;101578.06;4970271;28;20050;-74
2023/05/28 02:46:26;;;;;;;3.08;1.30;;;;;;;11.62;55.65;101571.97;4969899;28;20475;-72
2023/05/28 02:48:53;;;;;;;6.10;0.70;;;;;;;11.66;55.31;101578.03;4966447;28;20522;-72
2023/05/28 02:51:21;;;;;;;6.25;0.90;;;;;;;11.67;55.41;101569.31;4969241;28;20077;-71
2023/05/28 02:53:48;;;;;;;6.35;1.10;;;;;;;11.67;55.72;101574.53;4962416;28;20047;-71
2023/05/28 02:56:15;;;;;;;2.22;0.60;;;;;;;11.68;55.48;101565.81;4967786;28;20047;-72
2023/05/28 02:58:42;;;;;;;6.20;0.75;;;;;;;11.70;55.22;101571.91;4965680;28;20065;-71
2023/05/28 03:01:09;;;;;;;5.75;1.15;;;;;;;11.70;55.20;101561.44;4965088;28;20055;-71
2023/05/28 03:03:36;;;;;;;5.45;1.10;;;;;;;11.71;55.45;101556.16;4961979;28;20055;-72
2023/05/28 03:06:03;;;;;;;8.88;1.30;;;;;;;11.74;55.55;101554.41;4961798;28;20591;-72
2023/05/28 03:08:31;;;;;;;6.53;1.15;;;;;;;11.76;55.41;101552.63;4966801;28;20043;-71
2023/05/28 03:10:58;;;;;;;4.18;1.17;;;;;;;11.75;55.59;101551.75;4964944;28;20047;-71
2023/05/28 03:13:25;;;;;;;3.85;1.13;;;;;;;11.77;55.64;101557.84;4967424;28;20057;-72
2023/05/28 03:15:52;;;;;;;11.48;1.20;;;;;;;11.79;55.77;101550.00;4965253;28;20051;-71
2023/05/28 03:18:19;;;;;;;4.65;0.90;;;;;;;11.81;55.55;101550.81;4963705;28;20055;-71
2023/05/28 03:20:46;;;;;;;4.88;0.90;;;;;;;11.82;55.64;101549.94;4967693;28;20049;-72
2023/05/28 03:23:13;;;;;;;3.75;0.65;;;;;;;11.84;55.33;101546.44;4963782;28;20089;-72
2023/05/28 03:25:41;;;;;;;5.63;1.17;;;;;;;11.86;55.59;101543.81;4964672;28;20050;-71
2023/05/28 03:28:08;;;;;;;6.38;0.90;;;;;;;11.87;55.88;101543.81;4961982;28;20468;-72
2023/05/28 03:30:35;;;;;;;3.33;0.70;;;;;;;11.89;55.89;101549.88;4964283;28;20059;-71
2023/05/28 03:33:02;;;;;;;6.38;0.82;;;;;;;11.91;55.57;101550.72;4962753;28;20856;-71
2023/05/28 03:35:29;;;;;;;6.57;1.30;;;;;;;11.92;56.09;101542.00;4966495;28;20046;-72
2023/05/28 03:37:56;;;;;;;5.63;1.15;;;;;;;11.96;55.86;101549.84;4967745;28;20141;-71
2023/05/28 03:40:23;;;;;;;6.85;1.10;;;;;;;11.97;55.88;101543.69;4967134;28;20569;-71
2023/05/28 03:42:51;;;;;;;3.38;1.13;;;;;;;11.96;56.39;101528.88;4964656;28;20053;-72
2023/05/28 03:45:18;;;;;;;7.85;1.90;;;;;;;11.98;56.17;101532.31;4964619;28;20047;-70
2023/05/28 03:47:45;;;;;;;7.78;1.00;;;;;;;11.99;56.27;101531.47;4965822;28;20042;-71
2023/05/28 03:50:12;;;;;;;6.50;1.65;;;;;;;12.04;56.18;101537.47;4966863;28;20055;-71
2023/05/28 03:52:39;;;;;;;6.80;1.60;;;;;;;12.02;56.34;101532.28;4965169;28;20135;-71
2023/05/28 03:55:08;;;;;;;6.80;1.33;;;;;;;12.01;56.48;101522.72;4963310;28;20053;-71
2023/05/28 03:57:34;;;;;;;9.25;1.25;;;;;;;12.08;56.46;101528.72;4965768;28;20059;-72
2023/05/28 04:00:06;;;;;;;8.60;1.05;;;;;;;11.99;56.13;101505.28;4965410;28;20409;-71
2023/05/28 04:02:36;;;;;;;10.50;1.48;;;;;;;12.13;56.29;101533.00;4961876;28;20047;-72
2023/05/28 04:05:04;;;;;;;7.63;1.05;;;;;;;12.17;56.72;101523.34;4965089;28;20043;-72
2023/05/28 04:07:31;;;;;;;5.45;1.17;;;;;;;12.18;56.43;101529.47;4965896;28;20050;-72
2023/05/28 04:09:58;;;;;;;5.00;1.00;;;;;;;12.21;56.47;101527.69;4966112;28;20077;-72
2023/05/28 04:12:25;;;;;;;7.38;1.75;;;;;;;12.25;56.67;101521.50;4967395;28;20068;-72
2023/05/28 04:14:52;;;;;;;3.10;0.70;;;;;;;12.28;56.35;101525.84;4966329;28;20546;-72
2023/05/28 04:17:20;;;;;;;4.32;0.98;;;;;;;12.30;56.68;101524.94;4959423;28;20050;-71
2023/05/28 04:19:47;;;;;;;3.45;1.02;;;;;;;12.33;56.19;101534.50;4965034;28;20129;-71
2023/05/28 04:22:14;;;;;;;6.40;1.52;;;;;;;12.34;56.47;101531.84;4965820;28;20050;-72
2023/05/28 04:24:41;;;;;;;9.18;2.03;;;;;;;12.39;56.45;101529.19;4961976;28;20051;-71
2023/05/28 04:27:09;;;;;;;8.02;1.45;;;;;;;12.43;56.29;101532.63;4964090;28;20043;-72
2023/05/28 04:29:36;;;;;;;7.68;1.55;;;;;;;12.46;56.54;101530.81;4967819;28;20054;-71
2023/05/28 04:32:04;;;;;;;5.05;1.50;;;;;;;12.47;56.51;101527.31;4966361;28;20055;-72
2023/05/28 04:34:33;;;;;;;9.15;1.40;;;;;;;12.53;56.52;101526.38;4962947;28;20043;-71
2023/05/28 04:37:00;;;;;;;5.43;0.90;;;;;;;12.55;56.82;101525.47;4963766;28;20050;-71
2023/05/28 04:39:27;;;;;;;11.20;1.02;;;;;;;12.56;56.84;101521.09;4965993;28;20053;-71
2023/05/28 04:41:54;;;;;;;4.40;1.30;;;;;;;12.61;56.68;101527.13;4959686;28;20050;-71
2023/05/28 04:44:25;;;;;;;8.90;1.48;;;;;;;12.64;56.71;101518.34;4963076;28;20627;-72
2023/05/28 04:46:52;;;;;;;12.70;1.20;;;;;;;12.69;56.72;101524.38;4964762;28;20046;-71
2023/05/28 04:49:19;;;;;;;7.20;1.15;;;;;;;12.67;56.87;101508.69;4965977;28;20051;-72
2023/05/28 04:51:47;;;;;;;7.20;1.17;;;;;;;12.74;56.66;101518.16;4965980;28;20420;-72
2023/05/28 04:54:14;;;;;;;3.90;1.20;;;;;;;12.77;56.55;101517.25;4959906;28;20138;-73
2023/05/28 04:56:41;;;;;;;6.55;1.13;;;;;;;12.79;56.71;101510.25;4961500;28;20054;-72
2023/05/28 04:59:09;;;;;;;7.85;2.05;;;;;;;12.81;56.71;101504.09;4965157;28;20047;-71
2023/05/28 05:01:38;;;;;;;6.28;1.23;;;;;;;12.85;56.67;101504.91;4962761;28;20146;-72
2023/05/28 05:04:06;;;;;;;6.18;1.02;;;;;;;12.88;56.72;101507.47;4964987;28;20495;-72
2023/05/28 05:06:33;;;;;;;8.55;2.85;;;;;;;12.92;56.62;101513.53;4961269;28;20521;-71
2023/05/28 05:09:01;;;;;;;4.15;1.10;;;;;;;12.91;56.43;101506.56;4965815;28;20072;-72
2023/05/28 05:11:28;;;;;;;8.20;1.38;;;;;;;12.97;56.57;101511.69;4963078;28;20126;-72
2023/05/28 05:13:56;;;;;;;6.53;1.35;;;;;;;13.00;56.38;101501.16;4967593;28;20067;-71
2023/05/28 05:16:23;;;;;;;6.75;1.40;;;;;;;13.02;56.39;101494.13;4961555;28;20054;-72
2023/05/28 05:18:49;;;;;;;8.35;1.55;;;;;;;13.04;56.46;101498.47;4962588;28;20401;-72
2023/05/28 05:21:17;;;;;;;4.72;1.17;;;;;;;13.01;56.56;101479.28;4966219;28;20043;-72
2023/05/28 05:23:44;;;;;;;7.43;1.30;;;;;;;13.07;56.36;101487.06;4964561;28;20047;-72
2023/05/28 05:26:13;;;;;;;6.03;1.58;;;;;;;13.10;56.31;101481.75;4963890;28;20514;-73
2023/05/28 05:28:41;;;;;;;10.30;1.60;;;;;;;13.09;56.64;101479.13;4962001;28;20086;-72
2023/05/28 05:31:08;;;;;;;4.38;1.40;;;;;;;13.12;56.57;101477.34;4964583;28;20173;-72
2023/05/28 05:33:36;;;;;;;5.35;1.25;;;;;;;13.17;56.26;101499.09;4962098;28;20065;-73
2023/05/28 05:36:03;;;;;;;7.03;1.35;;;;;;;13.18;56.11;101490.34;4962705;28;20043;-72
2023/05/28 05:38:31;;;;;;;8.30;1.30;;;;;;;13.20;56.16;101483.31;4962709;28;20046;-71
2023/05/28 05:40:58;;;;;;;8.23;1.45;;;;;;;13.20;56.17;101487.69;4962567;28;20074;-72
2023/05/28 05:43:26;;;;;;;7.85;1.30;;;;;;;13.22;56.28;101489.41;4964191;28;20487;-72
2023/05/28 05:45:53;;;;;;;4.68;1.05;;;;;;;13.25;56.05;101485.84;4964788;28;20407;-71
2023/05/28 05:48:20;;;;;;;7.50;1.40;;;;;;;13.28;56.02;101489.31;4962656;28;20035;-71
2023/05/28 05:50:51;;;;;;;7.07;1.20;;;;;;;13.25;56.09;101485.84;4966553;28;20046;-71
2023/05/28 05:53:18;;;;;;;5.75;1.27;;;;;;;13.30;56.36;101493.69;4961568;28;20047;-71
2023/05/28 05:55:45;;;;;;;5.03;1.20;;;;;;;13.33;56.01;101497.13;4966964;28;20054;-73
2023/05/28 05:58:12;;;;;;;4.82;1.48;;;;;;;13.34;56.04;101492.72;4960227;28;20047;-72
2023/05/28 06:00:40;;;;;;;6.72;1.40;;;;;;;13.35;55.92;101483.94;4964418;28;20865;-72
2023/05/28 06:03:08;;;;;;;6.95;2.30;;;;;;;13.31;55.93;101475.28;4959595;28;20058;-72
2023/05/28 06:05:34;;;;;;;8.02;1.45;;;;;;;13.39;56.16;101483.00;4965222;28;20491;-72
2023/05/28 06:08:02;;;;;;;8.82;1.30;;;;;;;13.39;56.17;101477.75;4958793;28;20057;-71
2023/05/28 06:10:29;;;;;;;6.70;1.20;;;;;;;13.38;56.04;101474.28;4963028;28;20083;-72
2023/05/28 06:12:56;;;;;;;5.03;1.10;;;;;;;13.36;56.06;101467.31;4962740;28;20039;-72
2023/05/28 06:15:24;;;;;;;9.50;1.50;;;;;;;13.42;56.05;101472.47;4963406;28;20129;-71
2023/05/28 06:17:53;;;;;;;5.70;1.23;;;;;;;13.43;55.92;101476.78;4964589;28;20070;-72
2023/05/28 06:20:20;;;;;;;6.43;0.90;;;;;;;13.45;56.25;101482.88;4963808;28;20466;-73
2023/05/28 06:22:47;;;;;;;7.10;1.63;;;;;;;13.38;55.77;101465.56;4962759;28;20392;-73
2023/05/28 06:25:14;;;;;;;3.58;1.40;;;;;;;13.46;56.27;101466.25;4963041;28;20044;-72
2023/05/28 06:27:42;;;;;;;4.57;1.80;;;;;;;13.33;56.32;101438.53;4965204;28;20121;-72
2023/05/28 06:30:10;;;;;;;8.77;1.52;;;;;;;13.50;56.45;101467.94;4962353;28;20043;-73
2023/05/28 06:32:37;;;;;;;7.13;1.45;;;;;;;13.50;56.30;101460.06;4965455;28;20499;-72
2023/05/28 06:35:06;;;;;;;5.82;1.05;;;;;;;13.53;56.35;101465.25;4961845;28;20061;-72
2023/05/28 06:37:33;;;;;;;7.95;2.15;;;;;;;13.47;56.30;101442.59;4962049;28;20065;-72
2023/05/28 06:40:00;;;;;;;11.20;1.88;;;;;;;13.57;56.47;101442.41;4963318;28;20047;-72
2023/05/28 06:42:27;;;;;;;12.95;1.65;;;;;;;13.59;56.20;101443.25;4965784;28;20057;-72
2023/05/28 06:44:54;;;;;;;9.95;1.63;;;;;;;13.59;56.36;101443.25;4967524;28;20039;-71
2023/05/28 06:47:21;;;;;;;8.77;1.98;;;;;;;13.63;56.27;101448.41;4960660;28;20055;-71
2023/05/28 06:49:48;;;;;;;6.15;1.42;;;;;;;13.66;56.28;101456.22;4968778;28;20495;-71
2023/05/28 06:52:18;;;;;;;6.78;1.25;;;;;;;13.69;56.17;101463.19;4964231;28;20049;-72
2023/05/28 06:54:45;;;;;;;9.77;2.05;;;;;;;13.71;56.24;101459.59;4964721;28;20054;-71
2023/05/28 06:57:12;;;;;;;12.95;1.00;;;;;;;13.76;56.38;101458.66;4969269;28;20532;-72
2023/05/28 06:59:39;;;;;;;5.95;1.30;;;;;;;13.79;56.13;101453.34;4968172;28;20055;-72
2023/05/28 07:02:06;;;;;;;6.43;1.42;;;;;;;13.82;56.10;101441.00;4970418;28;20054;-79
2023/05/28 07:04:33;;;;;;;6.88;1.30;;;;;;;13.80;56.39;101440.16;4972180;28;20393;-75
2023/05/28 07:07:01;;;;;;;5.80;1.40;;;;;;;13.89;56.11;101436.50;4964615;28;20042;-75
2023/05/28 07:09:29;;;;;;;5.60;1.52;;;;;;;13.90;56.07;101441.72;4962507;28;20049;-73
2023/05/28 07:11:56;;;;;;;6.50;2.30;;;;;;;13.96;56.12;101443.34;4964626;28;20046;-80
2023/05/28 07:14:23;;;;;;;15.90;2.20;;;;;;;14.00;55.94;101438.88;4961168;28;20046;-74
2023/05/28 07:16:50;;;;;;;12.68;2.10;;;;;;;13.74;56.23;101390.41;4960514;28;20054;-74
2023/05/28 07:19:17;;;;;;;9.15;1.88;;;;;;;14.05;56.00;101435.25;4962505;28;20051;-76
2023/05/28 07:21:46;;;;;;;6.88;1.52;;;;;;;14.12;56.14;101443.88;4963305;28;20043;-74
2023/05/28 07:24:13;;;;;;;7.68;1.52;;;;;;;14.13;56.38;101441.19;4961442;28;20043;-75
2023/05/28 07:26:41;;;;;;;8.93;2.33;;;;;;;14.14;56.07;101435.06;4961640;28;20130;-74
2023/05/28 07:29:08;;;;;;;8.85;2.00;;;;;;;14.23;56.05;101436.63;4962875;28;20051;-75
2023/05/28 07:31:38;;;;;;;6.70;1.40;;;;;;;14.25;55.90;101445.31;4965235;28;20057;-73
2023/05/28 07:34:05;;;;;;;8.50;1.52;;;;;;;14.32;55.90;101443.44;4952228;28;20043;-76
2023/05/28 07:36:32;;;;;;;7.63;2.10;;;;;;;14.35;55.83;101438.09;4965504;28;20118;-73
2023/05/28 07:39:01;;;;;;;6.93;1.40;;;;;;;14.40;55.51;101433.59;4961324;28;20055;-75
2023/05/28 07:41:28;;;;;;;5.38;1.23;;;;;;;14.43;55.61;101436.16;4964178;28;20049;-74
2023/05/28 07:43:56;;;;;;;5.22;1.40;;;;;;;14.47;55.57;101435.16;4963681;28;20570;-73
2023/05/28 07:46:23;;;;;;;6.85;1.35;;;;;;;14.48;55.42;101422.88;4964269;28;20501;-74
2023/05/28 07:48:50;;;;;;;11.85;1.65;;;;;;;14.52;55.61;101428.06;4962287;28;20047;-73
2023/05/28 07:51:18;;;;;;;8.52;1.90;;;;;;;14.59;55.56;101421.75;4965688;28;20102;-74
2023/05/28 07:53:45;;;;;;;3.78;0.90;;;;;;;14.62;55.58;101408.50;4961386;28;20774;-74
2023/05/28 07:56:12;;;;;;;7.47;1.27;;;;;;;14.74;55.98;101422.25;4964636;28;20428;-74
2023/05/28 07:58:42;;;;;;;6.57;1.50;;;;;;;14.83;55.58;101408.91;4964387;28;20138;-73
2023/05/28 08:01:11;;;;;;;8.35;1.60;;;;;;;14.92;55.48;101416.53;4960291;28;20050;-73
2023/05/28 08:03:38;;;;;;;5.65;1.25;;;;;;;14.98;55.39;101412.88;4963355;28;20057;-73
2023/05/28 08:06:06;;;;;;;7.75;1.48;;;;;;;15.07;55.44;101413.50;4961412;28;20052;-74
2023/05/28 08:08:33;;;;;;;9.85;1.02;;;;;;;15.20;55.06;101405.28;4961091;28;20058;-75
2023/05/28 08:11:00;;;;;;;4.65;0.98;;;;;;;15.25;54.75;101404.25;4964478;28;20069;-75
2023/05/28 08:13:27;;;;;;;8.00;1.35;;;;;;;15.25;54.79;101387.56;4965554;28;20047;-75
2023/05/28 08:15:54;;;;;;;6.18;1.13;;;;;;;15.44;54.61;101409.84;4965185;28;20143;-80
2023/05/28 08:18:22;;;;;;;4.97;1.35;;;;;;;15.51;54.55;101407.88;4961087;28;20142;-74
2023/05/28 08:20:50;;;;;;;6.88;1.08;;;;;;;15.62;53.49;101402.31;4963281;28;20055;-73
2023/05/28 08:23:17;;;;;;;13.10;2.80;;;;;;;15.71;53.78;101397.69;4960151;28;20570;-74
2023/05/28 08:25:44;;;;;;;3.33;0.80;;;;;;;15.81;53.93;101393.00;4963733;28;20051;-74
2023/05/28 08:28:11;;;;;;;5.95;1.30;;;;;;;15.91;53.57;101402.34;4957687;28;20055;-75
2023/05/28 08:30:38;;;;;;;4.82;0.88;;;;;;;16.00;52.96;101395.06;4964887;28;20061;-74
2023/05/28 08:33:05;;;;;;;6.60;1.65;;;;;;;16.04;52.82;101394.06;4962684;28;20058;-75
2023/05/28 08:35:33;;;;;;;4.80;0.90;;;;;;;16.15;52.66;101398.06;4961472;28;20055;-75
2023/05/28 08:38:00;;;;;;;4.82;1.23;;;;;;;16.21;52.22;101402.28;4963359;28;20500;-74
2023/05/28 08:40:29;;;;;;;4.45;0.70;;;;;;;16.26;51.89;101395.09;4962949;28;20057;-74
2023/05/28 08:42:56;;;;;;;5.10;0.68;;;;;;;16.33;51.77;101395.75;4959538;28;20082;-75
2023/05/28 08:45:23;;;;;;;3.28;1.10;;;;;;;16.35;51.63;101402.72;4961933;28;20054;-74
2023/05/28 08:47:52;;;;;;;10.30;1.15;;;;;;;16.44;51.57;101392.78;4965465;28;20050;-75
2023/05/28 08:50:20;;;;;;;5.13;0.88;;;;;;;16.48;51.34;101389.09;4964758;28;20051;-75
2023/05/28 08:52:50;;;;;;;7.88;1.40;;;;;;;16.56;51.25;101392.34;4964657;28;20053;-74
2023/05/28 08:55:17;;;;;;;2.88;0.98;;;;;;;16.63;51.67;101388.63;4962604;28;20070;-74
2023/05/28 08:57:46;;;;;;;6.20;1.50;;;;;;;16.68;51.85;101385.81;4960520;28;20046;-73
2023/05/28 09:00:15;;;;;;;8.10;0.82;;;;;;;16.69;51.37;101367.28;4963975;28;20057;-74
2023/05/28 09:02:42;;;;;;;5.75;0.88;;;;;;;16.85;51.42;101379.09;4961874;28;20129;-73
2023/05/28 09:05:09;;;;;;;4.53;1.08;;;;;;;16.92;51.16;101371.81;4964253;28;20086;-75
2023/05/28 09:07:36;;;;;;;8.88;1.35;;;;;;;17.01;51.19;101375.88;4964660;28;20135;-74
2023/05/28 09:10:05;;;;;;;4.10;1.25;;;;;;;17.08;51.22;101374.78;4965176;28;20102;-75
2023/05/28 09:12:32;;;;;;;6.28;1.42;;;;;;;17.20;50.91;101374.31;4964670;28;20082;-75
2023/05/28 09:15:00;;;;;;;2.28;0.80;;;;;;;17.29;51.02;101379.25;4963613;28;20061;-75
2023/05/28 09:17:34;;;;;;;6.93;0.70;;;;;;;17.40;50.62;101372.72;4955440;28;20050;-75
2023/05/28 09:20:01;;;;;;;3.97;1.17;;;;;;;17.50;50.27;101366.16;4959837;28;20073;-76
2023/05/28 09:22:28;;;;;;;5.30;0.98;;;;;;;17.59;49.99;101360.53;4962505;28;20499;-75
2023/05/28 09:24:56;;;;;;;4.45;0.90;;;;;;;17.67;49.98;101354.94;4961609;28;20085;-75
2023/05/28 09:27:25;;;;;;;4.85;1.08;;;;;;;17.79;49.49;101356.28;4961049;28;20066;-74
2023/05/28 09:29:53;;;;;;;6.75;1.10;;;;;;;17.88;49.24;101355.94;4965446;28;20055;-76
2023/05/28 09:32:21;;;;;;;6.70;1.27;;;;;;;17.96;49.02;101353.84;4964088;28;20141;-74
2023/05/28 09:34:50;;;;;;;4.97;1.02;;;;;;;18.04;49.11;101349.09;4965218;28;20081;-76
2023/05/28 09:37:18;;;;;;;6.15;1.50;;;;;;;18.11;47.98;101350.59;4960368;28;20050;-75
2023/05/28 09:39:48;;;;;;;6.13;0.80;;;;;;;18.13;47.96;101340.81;4966247;28;20050;-74
2023/05/28 09:42:17;;;;;;;5.63;0.70;;;;;;;18.24;47.21;101336.84;4961046;28;20051;-74
2023/05/28 09:44:45;;;;;;;1.60;0.50;;;;;;;18.27;47.13;101339.38;4965071;28;20480;-77
2023/05/28 09:47:16;;;;;;;1.55;0.50;;;;;;;18.30;47.28;101342.75;4958019;28;20055;-75
2023/05/28 09:49:44;;;;;;;2.05;0.45;;;;;;;18.33;46.79;101347.06;4964350;28;20051;-76
2023/05/28 09:52:17;;;;;;;5.78;0.90;;;;;;;18.36;46.29;101339.84;4961948;28;20050;-75
2023/05/28 09:54:51;;;;;;;4.25;0.40;;;;;;;18.40;46.05;101332.66;4958846;28;20662;-74
2023/05/28 09:57:22;;;;;;;8.00;0.50;;;;;;;18.40;45.99;101322.91;4961605;28;20093;-75
2023/05/28 09:59:55;;;;;;;4.18;0.68;;;;;;;18.46;45.85;101336.81;4961711;28;20444;-75
2023/05/28 10:02:33;;;;;;;2.67;0.43;;;;;;;18.48;46.15;101327.91;4962792;28;20418;-75
2023/05/28 10:05:08;;;;;;;2.25;0.40;;;;;;;18.52;46.14;101332.13;4961274;28;20517;-74
2023/05/28 10:07:37;;;;;;;3.35;0.40;;;;;;;18.55;44.97;101336.41;4964029;28;20066;-74
2023/05/28 10:10:05;;;;;;;0.93;0.25;;;;;;;18.52;44.98;101325.97;4962280;28;20051;-75
2023/05/28 10:12:33;;;;;;;2.55;0.40;;;;;;;18.51;44.42;101330.41;4960967;28;20079;-75
2023/05/28 10:15:02;;;;;;;5.45;0.40;;;;;;;18.54;44.28;101324.97;4967050;28;20050;-75
2023/05/28 10:17:29;;;;;;;4.28;0.52;;;;;;;18.56;44.06;101338.16;4964324;28;20307;-74
2023/05/28 10:19:56;;;;;;;2.47;0.50;;;;;;;18.55;44.14;101341.72;4968187;28;20066;-73
2023/05/28 10:22:23;;;;;;;5.18;0.50;;;;;;;18.53;43.83;101333.84;4963428;28;20818;-72
2023/05/28 10:24:53;;;;;;;4.00;0.40;;;;;;;18.54;43.41;101338.22;4968380;28;20046;-73
2023/05/28 10:27:21;;;;;;;4.70;0.50;;;;;;;18.53;43.92;101336.50;4965066;28;20082;-73
2023/05/28 10:29:47;;;;;;;4.40;1.02;;;;;;;18.55;43.79;101342.56;4969061;28;20050;-74
2023/05/28 10:32:17;;;;;;;3.30;0.50;;;;;;;18.52;43.43;101344.50;4968295;28;20881;-73
2023/05/28 10:34:44;;;;;;;1.35;0.50;;;;;;;18.56;43.06;101351.38;4967895;28;20396;-74
2023/05/28 10:37:13;;;;;;;1.83;0.50;;;;;;;18.53;43.28;101346.22;4966001;28;20051;-74
2023/05/28 10:39:41;;;;;;;1.67;0.40;;;;;;;18.51;43.05;101341.00;4966567;28;20426;-74
2023/05/28 10:42:09;;;;;;;1.33;0.38;;;;;;;18.49;43.39;101340.19;4966079;28;20056;-74
2023/05/28 10:45:07;;;;;;;6.15;0.35;;;;;;;18.14;43.49;101283.50;4966726;28;20061;-73
2023/05/28 10:47:40;;;;;;;3.22;1.27;;;;;;;18.46;43.66;101337.66;4971980;28;20462;-78
2023/05/28 10:50:17;;;;;;;0.85;0.40;;;;;;;18.50;43.44;101338.41;4973348;28;20051;-81
2023/05/28 10:52:43;;;;;;;3.13;0.40;;;;;;;18.49;43.57;101326.97;4967010;28;20047;-77
2023/05/28 10:55:13;;;;;;;2.65;0.32;;;;;;;18.52;43.51;101325.97;4967808;28;20061;-75
2023/05/28 10:57:42;;;;;;;3.47;0.40;;;;;;;18.51;43.64;101329.56;4967172;28;20055;-76
2023/05/28 11:00:13;;;;;;;1.15;0.30;;;;;;;18.48;43.71;101319.97;4965330;28;20053;-76
2023/05/28 11:02:43;;;;;;;1.40;0.30;;;;;;;18.46;43.38;101310.38;4968530;28;20108;-75
2023/05/28 11:05:11;;;;;;;1.83;0.30;;;;;;;18.54;43.59;101327.63;4967199;28;20084;-76
2023/05/28 11:07:39;;;;;;;6.18;0.30;;;;;;;18.56;43.48;101323.13;4965794;28;20057;-76
2023/05/28 11:10:08;;;;;;;1.77;0.43;;;;;;;18.54;43.36;101318.84;4965536;28;20047;-75
2023/05/28 11:12:37;;;;;;;2.03;0.80;;;;;;;18.53;43.09;101323.28;4968578;28;20054;-76
2023/05/28 11:15:06;;;;;;;1.15;0.40;;;;;;;18.56;43.14;101338.16;4963416;28;20054;-74
2023/05/28 11:17:38;;;;;;;2.50;0.60;;;;;;;18.55;43.35;101334.63;4966061;28;20065;-75
2023/05/28 11:20:16;;;;;;;3.38;0.40;;;;;;;18.53;43.52;101328.56;4964882;28;20562;-76
2023/05/28 11:22:42;;;;;;;2.97;0.32;;;;;;;18.52;43.72;101331.25;4967641;28;20059;-75
2023/05/28 11:25:12;;;;;;;2.28;0.35;;;;;;;18.56;43.82;101323.13;4964204;28;20055;-77
2023/05/28 11:27:40;;;;;;;0.85;0.40;;;;;;;18.47;43.64;101315.59;4965359;28;20047;-76